sensor_id;sensor_type;location;lat;lon;timestamp;pressure;altitude;pressure_sealevel;temperature;humidity
7662;BME280;30314;48.184;11.510;2024-03-08T00:00:30;95815.34;;;0.97;100.00
7662;BME280;30314;48.184;11.510;2024-03-08T00:02:59;95810.47;;;1.01;100.00
7662;BME280;30314;48.184;11.510;2024-03-08T00:05:27;95812.41;;;1.05;100.00
7662;BME280;30314;48.184;11.510;2024-03-08T00:07:54;95804.59;;;0.93;100.00
7662;BME280;30314;48.184;11.510;2024-03-08T00:10:20;95806.75;;;0.96;100.00
7662;BME280;30314;48.184;11.510;2024-03-08T00:12:49;95814.66;;;0.90;100.00
7662;BME280;30314;48.184;11.510;2024-03-08T00:15:17;95804.94;;;0.97;100.00
7662;BME280;30314;48.184;11.510;2024-03-08T00:17:46;95811.84;;;0.91;100.00
7662;BME280;30314;48.184;11.510;2024-03-08T00:20:14;95806.41;;;0.93;100.00
7662;BME280;30314;48.184;11.510;2024-03-08T00:22:41;95798.47;;;0.88;100.00
7662;BME280;30314;48.184;11.510;2024-03-08T00:25:08;95789.09;;;0.87;100.00
7662;BME280;30314;48.184;11.510;2024-03-08T00:27:36;95785.81;;;0.79;100.00
7662;BME280;30314;48.184;11.510;2024-03-08T00:30:03;95795.19;;;0.80;100.00
7662;BME280;30314;48.184;11.510;2024-03-08T00:32:30;95794.31;;;0.87;100.00
7662;BME280;30314;48.184;11.510;2024-03-08T00:34:58;95783.88;;;0.75;100.00
7662;BME280;30314;48.184;11.510;2024-03-08T00:37:25;95799.16;;;0.83;100.00
7662;BME280;30314;48.184;11.510;2024-03-08T00:39:52;95794.31;;;0.87;100.00
7662;BME280;30314;48.184;11.510;2024-03-08T00:42:19;95786.84;;;0.90;100.00
7662;BME280;30314;48.184;11.510;2024-03-08T00:44:46;95783.34;;;0.85;100.00
7662;BME280;30314;48.184;11.510;2024-03-08T00:47:14;95780.59;;;0.79;100.00
7662;BME280;30314;48.184;11.510;2024-03-08T00:49:41;95775.66;;;0.78;100.00
7662;BME280;30314;48.184;11.510;2024-03-08T00:52:08;95768.88;;;0.77;100.00
7662;BME280;30314;48.184;11.510;2024-03-08T00:54:35;95768.16;;;0.81;100.00
7662;BME280;30314;48.184;11.510;2024-03-08T00:57:04;95766.13;;;0.72;100.00
7662;BME280;30314;48.184;11.510;2024-03-08T00:59:33;95758.78;;;0.68;100.00
7662;BME280;30314;48.184;11.510;2024-03-08T01:02:00;95753.44;;;0.63;100.00
7662;BME280;30314;48.184;11.510;2024-03-08T01:04:27;95755.28;;;0.63;100.00
7662;BME280;30314;48.184;11.510;2024-03-08T01:06:58;95752.56;;;0.69;100.00
7662;BME280;30314;48.184;11.510;2024-03-08T01:09:26;95748.03;;;0.65;100.00
7662;BME280;30314;48.184;11.510;2024-03-08T01:11:54;95753.38;;;0.70;100.00
7662;BME280;30314;48.184;11.510;2024-03-08T01:14:22;95748.50;;;0.62;100.00
7662;BME280;30314;48.184;11.510;2024-03-08T01:16:52;95753.13;;;0.72;100.00
7662;BME280;30314;48.184;11.510;2024-03-08T01:19:19;95752.81;;;0.92;100.00
7662;BME280;30314;48.184;11.510;2024-03-08T01:21:45;95732.44;;;0.65;100.00
7662;BME280;30314;48.184;11.510;2024-03-08T01:24:12;95748.72;;;0.84;100.00
7662;BME280;30314;48.184;11.510;2024-03-08T01:26:39;95746.69;;;0.74;100.00
7662;BME280;30314;48.184;11.510;2024-03-08T01:29:06;95742.88;;;0.77;100.00
7662;BME280;30314;48.184;11.510;2024-03-08T01:31:33;95714.72;;;0.62;100.00
7662;BME280;30314;48.184;11.510;2024-03-08T01:34:00;95732.13;;;0.73;100.00
7662;BME280;30314;48.184;11.510;2024-03-08T01:36:26;95730.66;;;0.65;100.00
7662;BME280;30314;48.184;11.510;2024-03-08T01:38:53;95731.56;;;0.71;100.00
7662;BME280;30314;48.184;11.510;2024-03-08T01:41:20;95716.06;;;0.64;100.00
7662;BME280;30314;48.184;11.510;2024-03-08T01:43:46;95719.34;;;0.60;100.00
7662;BME280;30314;48.184;11.510;2024-03-08T01:46:19;95719.34;;;0.60;100.00
7662;BME280;30314;48.184;11.510;2024-03-08T01:57:35;95681.47;;;0.40;100.00
7662;BME280;30314;48.184;11.510;2024-03-08T02:00:02;95680.59;;;0.46;100.00
7662;BME280;30314;48.184;11.510;2024-03-08T02:02:32;95683.03;;;0.41;100.00
7662;BME280;30314;48.184;11.510;2024-03-08T02:05:00;95613.75;;;-0.13;100.00
7662;BME280;30314;48.184;11.510;2024-03-08T02:07:27;95580.31;;;-0.33;100.00
7662;BME280;30314;48.184;11.510;2024-03-08T02:09:54;95608.72;;;-0.08;100.00
7662;BME280;30314;48.184;11.510;2024-03-08T02:12:20;95678.41;;;0.43;100.00
7662;BME280;30314;48.184;11.510;2024-03-08T02:14:47;95682.38;;;0.34;100.00
7662;BME280;30314;48.184;11.510;2024-03-08T02:17:14;95664.84;;;0.29;100.00
7662;BME280;30314;48.184;11.510;2024-03-08T02:19:41;95673.81;;;0.45;100.00
7662;BME280;30314;48.184;11.510;2024-03-08T02:22:08;95650.97;;;0.35;100.00
7662;BME280;30314;48.184;11.510;2024-03-08T02:24:35;95681.81;;;0.55;100.00
7662;BME280;30314;48.184;11.510;2024-03-08T02:27:02;95622.50;;;0.17;100.00
7662;BME280;30314;48.184;11.510;2024-03-08T02:29:29;95658.88;;;0.29;100.00
7662;BME280;30314;48.184;11.510;2024-03-08T02:31:56;95653.66;;;0.29;100.00
7662;BME280;30314;48.184;11.510;2024-03-08T02:34:23;95650.28;;;0.40;100.00
7662;BME280;30314;48.184;11.510;2024-03-08T02:36:50;95677.53;;;0.37;100.00
7662;BME280;30314;48.184;11.510;2024-03-08T02:39:18;95558.88;;;-0.28;100.00
7662;BME280;30314;48.184;11.510;2024-03-08T02:41:46;95655.69;;;0.26;100.00
7662;BME280;30314;48.184;11.510;2024-03-08T02:44:13;95550.84;;;-0.39;100.00
7662;BME280;30314;48.184;11.510;2024-03-08T02:46:41;95599.09;;;-0.07;100.00
7662;BME280;30314;48.184;11.510;2024-03-08T02:49:08;95607.22;;;-0.04;100.00
7662;BME280;30314;48.184;11.510;2024-03-08T02:51:34;95646.13;;;0.27;100.00
7662;BME280;30314;48.184;11.510;2024-03-08T02:54:02;95683.19;;;0.46;100.00
7662;BME280;30314;48.184;11.510;2024-03-08T02:56:30;95651.56;;;0.37;100.00
7662;BME280;30314;48.184;11.510;2024-03-08T02:59:01;95529.44;;;-0.46;100.00
7662;BME280;30314;48.184;11.510;2024-03-08T03:01:28;95650.84;;;0.30;100.00
7662;BME280;30314;48.184;11.510;2024-03-08T03:03:55;95643.38;;;0.22;100.00
7662;BME280;30314;48.184;11.510;2024-03-08T03:06:21;95639.88;;;0.16;100.00
7662;BME280;30314;48.184;11.510;2024-03-08T03:08:48;95646.69;;;0.17;100.00
7662;BME280;30314;48.184;11.510;2024-03-08T03:11:15;95641.13;;;0.13;100.00
7662;BME280;30314;48.184;11.510;2024-03-08T03:13:41;95632.44;;;0.08;100.00
7662;BME280;30314;48.184;11.510;2024-03-08T03:16:19;95628.56;;;-0.02;100.00
7662;BME280;30314;48.184;11.510;2024-03-08T03:18:46;95643.38;;;0.22;100.00
7662;BME280;30314;48.184;11.510;2024-03-08T03:21:13;95664.06;;;0.29;100.00
7662;BME280;30314;48.184;11.510;2024-03-08T03:23:41;95625.19;;;0.10;100.00
7662;BME280;30314;48.184;11.510;2024-03-08T03:26:09;95646.53;;;0.12;100.00
7662;BME280;30314;48.184;11.510;2024-03-08T03:28:39;95631.16;;;-0.02;100.00
7662;BME280;30314;48.184;11.510;2024-03-08T03:31:06;95619.41;;;-0.04;100.00
7662;BME280;30314;48.184;11.510;2024-03-08T03:33:36;95632.97;;;-0.02;100.00
7662;BME280;30314;48.184;11.510;2024-03-08T03:36:04;95622.00;;;-0.16;100.00
7662;BME280;30314;48.184;11.510;2024-03-08T03:38:31;95602.81;;;-0.27;100.00
7662;BME280;30314;48.184;11.510;2024-03-08T03:40:58;95626.38;;;-0.17;100.00
7662;BME280;30314;48.184;11.510;2024-03-08T03:43:30;95612.38;;;-0.27;100.00
7662;BME280;30314;48.184;11.510;2024-03-08T03:45:57;95623.59;;;-0.15;100.00
7662;BME280;30314;48.184;11.510;2024-03-08T03:48:24;95643.03;;;-0.06;100.00
7662;BME280;30314;48.184;11.510;2024-03-08T03:50:51;95616.25;;;-0.06;100.00
7662;BME280;30314;48.184;11.510;2024-03-08T03:53:17;95603.25;;;-0.18;100.00
7662;BME280;30314;48.184;11.510;2024-03-08T03:55:44;95585.97;;;-0.24;100.00
7662;BME280;30314;48.184;11.510;2024-03-08T03:58:10;95614.78;;;-0.14;100.00
7662;BME280;30314;48.184;11.510;2024-03-08T04:00:38;95575.78;;;-0.38;100.00
7662;BME280;30314;48.184;11.510;2024-03-08T04:03:04;95629.94;;;0.13;100.00
7662;BME280;30314;48.184;11.510;2024-03-08T04:05:31;95628.25;;;0.07;100.00
7662;BME280;30314;48.184;11.510;2024-03-08T04:07:58;95602.34;;;-0.12;100.00
7662;BME280;30314;48.184;11.510;2024-03-08T04:10:25;95606.66;;;-0.06;100.00
7662;BME280;30314;48.184;11.510;2024-03-08T04:12:51;95613.31;;;-0.10;100.00
7662;BME280;30314;48.184;11.510;2024-03-08T04:15:19;95592.53;;;-0.22;100.00
7662;BME280;30314;48.184;11.510;2024-03-08T04:17:45;95590.16;;;-0.23;100.00
7662;BME280;30314;48.184;11.510;2024-03-08T04:20:13;95583.06;;;-0.28;100.00
7662;BME280;30314;48.184;11.510;2024-03-08T04:22:41;95588.00;;;-0.38;100.00
7662;BME280;30314;48.184;11.510;2024-03-08T04:25:08;95600.09;;;-0.20;100.00
7662;BME280;30314;48.184;11.510;2024-03-08T04:27:36;95590.78;;;-0.40;100.00
7662;BME280;30314;48.184;11.510;2024-03-08T04:30:03;95606.16;;;-0.26;100.00
7662;BME280;30314;48.184;11.510;2024-03-08T04:32:30;95589.91;;;-0.34;100.00
7662;BME280;30314;48.184;11.510;2024-03-08T04:34:59;95603.81;;;-0.16;100.00
7662;BME280;30314;48.184;11.510;2024-03-08T04:40:35;95618.53;;;0.02;100.00
7662;BME280;30314;48.184;11.510;2024-03-08T04:43:02;95597.97;;;-0.11;100.00
7662;BME280;30314;48.184;11.510;2024-03-08T04:45:28;95592.41;;;-0.27;100.00
7662;BME280;30314;48.184;11.510;2024-03-08T04:47:55;95595.34;;;-0.23;100.00
7662;BME280;30314;48.184;11.510;2024-03-08T04:50:22;95586.44;;;-0.27;100.00
7662;BME280;30314;48.184;11.510;2024-03-08T04:52:49;95618.38;;;-0.15;100.00
7662;BME280;30314;48.184;11.510;2024-03-08T04:55:16;95596.25;;;-0.30;100.00
7662;BME280;30314;48.184;11.510;2024-03-08T04:57:43;95580.66;;;-0.30;100.00
7662;BME280;30314;48.184;11.510;2024-03-08T05:00:13;95604.94;;;-0.12;100.00
7662;BME280;30314;48.184;11.510;2024-03-08T05:02:41;95585.19;;;-0.25;100.00
7662;BME280;30314;48.184;11.510;2024-03-08T05:05:08;95578.28;;;-0.31;100.00
7662;BME280;30314;48.184;11.510;2024-03-08T05:07:41;95592.19;;;-0.25;100.00
7662;BME280;30314;48.184;11.510;2024-03-08T05:10:10;95575.38;;;-0.35;100.00
7662;BME280;30314;48.184;11.510;2024-03-08T05:12:36;95591.56;;;-0.09;100.00
7662;BME280;30314;48.184;11.510;2024-03-08T05:15:05;95596.84;;;0.08;100.00
7662;BME280;30314;48.184;11.510;2024-03-08T05:17:33;95545.00;;;-0.34;100.00
7662;BME280;30314;48.184;11.510;2024-03-08T05:20:01;95588.72;;;-0.07;100.00
7662;BME280;30314;48.184;11.510;2024-03-08T05:22:27;95583.88;;;-0.16;100.00
7662;BME280;30314;48.184;11.510;2024-03-08T05:24:54;95572.56;;;-0.21;100.00
7662;BME280;30314;48.184;11.510;2024-03-08T05:27:20;95590.03;;;-0.17;100.00
7662;BME280;30314;48.184;11.510;2024-03-08T05:29:47;95583.31;;;-0.06;100.00
7662;BME280;30314;48.184;11.510;2024-03-08T05:32:14;95582.75;;;0.04;100.00
7662;BME280;30314;48.184;11.510;2024-03-08T05:34:40;95586.16;;;0.05;100.00
7662;BME280;30314;48.184;11.510;2024-03-08T05:37:07;95562.53;;;-0.06;100.00
7662;BME280;30314;48.184;11.510;2024-03-08T05:39:33;95580.81;;;-0.01;100.00
7662;BME280;30314;48.184;11.510;2024-03-08T05:42:00;95577.88;;;-0.04;100.00
7662;BME280;30314;48.184;11.510;2024-03-08T05:44:27;95571.44;;;-0.02;100.00
7662;BME280;30314;48.184;11.510;2024-03-08T05:46:55;95564.09;;;-0.17;100.00
7662;BME280;30314;48.184;11.510;2024-03-08T05:49:22;95570.88;;;-0.16;100.00
7662;BME280;30314;48.184;11.510;2024-03-08T05:51:49;95577.66;;;-0.14;100.00
7662;BME280;30314;48.184;11.510;2024-03-08T05:54:15;95589.63;;;-0.13;100.00
7662;BME280;30314;48.184;11.510;2024-03-08T05:56:46;95592.22;;;-0.02;100.00
7662;BME280;30314;48.184;11.510;2024-03-08T05:59:14;95565.34;;;-0.19;100.00
7662;BME280;30314;48.184;11.510;2024-03-08T06:01:41;95578.09;;;0.06;100.00
7662;BME280;30314;48.184;11.510;2024-03-08T06:04:09;95564.22;;;0.01;100.00
7662;BME280;30314;48.184;11.510;2024-03-08T06:06:38;95574.50;;;-0.05;100.00
7662;BME280;30314;48.184;11.510;2024-03-08T06:09:04;95557.44;;;-0.01;100.00
7662;BME280;30314;48.184;11.510;2024-03-08T06:11:44;95580.34;;;0.03;100.00
7662;BME280;30314;48.184;11.510;2024-03-08T06:14:10;95549.88;;;-0.14;100.00
7662;BME280;30314;48.184;11.510;2024-03-08T06:16:37;95554.84;;;-0.12;100.00
7662;BME280;30314;48.184;11.510;2024-03-08T06:19:04;95507.91;;;-0.35;100.00
7662;BME280;30314;48.184;11.510;2024-03-08T06:21:38;95557.81;;;-0.09;100.00
7662;BME280;30314;48.184;11.510;2024-03-08T06:24:04;95551.25;;;-0.11;100.00
7662;BME280;30314;48.184;11.510;2024-03-08T06:26:33;95565.03;;;0.25;100.00
7662;BME280;30314;48.184;11.510;2024-03-08T06:29:03;95570.09;;;0.20;100.00
7662;BME280;30314;48.184;11.510;2024-03-08T06:31:33;95568.31;;;0.20;100.00
7662;BME280;30314;48.184;11.510;2024-03-08T06:34:00;95589.63;;;0.34;100.00
7662;BME280;30314;48.184;11.510;2024-03-08T06:36:33;95550.47;;;0.00;100.00
7662;BME280;30314;48.184;11.510;2024-03-08T06:38:59;95564.56;;;0.16;100.00
7662;BME280;30314;48.184;11.510;2024-03-08T06:41:26;95505.31;;;-0.35;100.00
7662;BME280;30314;48.184;11.510;2024-03-08T06:43:53;95565.13;;;-0.06;100.00
7662;BME280;30314;48.184;11.510;2024-03-08T06:46:24;95555.22;;;-0.09;100.00
7662;BME280;30314;48.184;11.510;2024-03-08T06:48:51;95556.78;;;-0.08;100.00
7662;BME280;30314;48.184;11.510;2024-03-08T06:51:18;95579.13;;;0.05;100.00
7662;BME280;30314;48.184;11.510;2024-03-08T06:53:44;95495.03;;;-0.41;100.00
7662;BME280;30314;48.184;11.510;2024-03-08T06:56:11;95588.06;;;0.21;100.00
7662;BME280;30314;48.184;11.510;2024-03-08T06:58:38;95594.50;;;0.31;100.00
7662;BME280;30314;48.184;11.510;2024-03-08T07:01:04;95575.19;;;0.15;100.00
7662;BME280;30314;48.184;11.510;2024-03-08T07:03:34;95552.50;;;0.10;100.00
7662;BME280;30314;48.184;11.510;2024-03-08T07:06:00;95570.66;;;0.22;100.00
7662;BME280;30314;48.184;11.510;2024-03-08T07:08:30;95575.84;;;0.10;100.00
7662;BME280;30314;48.184;11.510;2024-03-08T07:10:57;95577.78;;;0.26;100.00
7662;BME280;30314;48.184;11.510;2024-03-08T07:13:25;95580.25;;;0.33;100.00
7662;BME280;30314;48.184;11.510;2024-03-08T07:15:53;95553.84;;;0.24;100.00
7662;BME280;30314;48.184;11.510;2024-03-08T07:18:19;95563.34;;;0.31;100.00
7662;BME280;30314;48.184;11.510;2024-03-08T07:20:46;95554.06;;;0.35;100.00
7662;BME280;30314;48.184;11.510;2024-03-08T07:23:13;95561.50;;;0.43;100.00
7662;BME280;30314;48.184;11.510;2024-03-08T07:25:59;95567.94;;;0.40;100.00
7662;BME280;30314;48.184;11.510;2024-03-08T07:28:27;95565.09;;;0.42;100.00
7662;BME280;30314;48.184;11.510;2024-03-08T07:30:54;95582.84;;;0.57;100.00
7662;BME280;30314;48.184;11.510;2024-03-08T07:33:34;95529.22;;;0.27;100.00
7662;BME280;30314;48.184;11.510;2024-03-08T07:36:01;95533.84;;;0.37;100.00
7662;BME280;30314;48.184;11.510;2024-03-08T07:38:27;95571.41;;;0.70;100.00
7662;BME280;30314;48.184;11.510;2024-03-08T07:40:54;95547.34;;;0.63;100.00
7662;BME280;30314;48.184;11.510;2024-03-08T07:43:20;95539.88;;;0.66;100.00
7662;BME280;30314;48.184;11.510;2024-03-08T07:45:48;95547.16;;;0.93;100.00
7662;BME280;30314;48.184;11.510;2024-03-08T07:48:15;95540.69;;;0.96;100.00
7662;BME280;30314;48.184;11.510;2024-03-08T07:50:43;95550.50;;;1.06;100.00
7662;BME280;30314;48.184;11.510;2024-03-08T07:53:09;95576.31;;;1.24;100.00
7662;BME280;30314;48.184;11.510;2024-03-08T07:55:36;95547.00;;;1.29;100.00
7662;BME280;30314;48.184;11.510;2024-03-08T07:58:04;95539.63;;;1.55;100.00
7662;BME280;30314;48.184;11.510;2024-03-08T08:00:30;95537.56;;;2.08;100.00
7662;BME280;30314;48.184;11.510;2024-03-08T08:03:00;95531.19;;;2.38;100.00
7662;BME280;30314;48.184;11.510;2024-03-08T08:05:27;95538.34;;;2.48;100.00
7662;BME280;30314;48.184;11.510;2024-03-08T08:07:54;95533.69;;;2.50;100.00
7662;BME280;30314;48.184;11.510;2024-03-08T08:10:21;95556.59;;;2.93;100.00
7662;BME280;30314;48.184;11.510;2024-03-08T08:12:49;95554.69;;;3.33;100.00
7662;BME280;30314;48.184;11.510;2024-03-08T08:15:15;95527.00;;;3.04;100.00
7662;BME280;30314;48.184;11.510;2024-03-08T08:17:46;95532.13;;;3.49;100.00
7662;BME280;30314;48.184;11.510;2024-03-08T08:20:13;95530.78;;;4.17;100.00
7662;BME280;30314;48.184;11.510;2024-03-08T08:22:41;95546.59;;;4.38;100.00
7662;BME280;30314;48.184;11.510;2024-03-08T08:25:10;95528.16;;;4.17;100.00
7662;BME280;30314;48.184;11.510;2024-03-08T08:27:50;95525.09;;;3.87;100.00
7662;BME280;30314;48.184;11.510;2024-03-08T08:30:16;95539.06;;;3.71;100.00
7662;BME280;30314;48.184;11.510;2024-03-08T08:33:00;95525.06;;;3.22;100.00
7662;BME280;30314;48.184;11.510;2024-03-08T08:35:27;95501.78;;;2.88;100.00
7662;BME280;30314;48.184;11.510;2024-03-08T08:37:55;95530.66;;;3.31;100.00
7662;BME280;30314;48.184;11.510;2024-03-08T08:40:22;95509.25;;;3.06;100.00
7662;BME280;30314;48.184;11.510;2024-03-08T08:42:49;95512.41;;;2.81;100.00
7662;BME280;30314;48.184;11.510;2024-03-08T08:45:16;95528.94;;;2.92;100.00
7662;BME280;30314;48.184;11.510;2024-03-08T08:47:50;95533.97;;;2.99;100.00
7662;BME280;30314;48.184;11.510;2024-03-08T08:50:16;95476.88;;;2.52;100.00
7662;BME280;30314;48.184;11.510;2024-03-08T08:52:50;95496.91;;;2.69;100.00
7662;BME280;30314;48.184;11.510;2024-03-08T08:55:16;95492.81;;;2.56;100.00
7662;BME280;30314;48.184;11.510;2024-03-08T08:57:53;95487.38;;;2.58;100.00
7662;BME280;30314;48.184;11.510;2024-03-08T09:00:20;95495.75;;;2.60;100.00
7662;BME280;30314;48.184;11.510;2024-03-08T09:02:47;95504.06;;;2.57;100.00
7662;BME280;30314;48.184;11.510;2024-03-08T09:05:15;95483.13;;;2.51;100.00
7662;BME280;30314;48.184;11.510;2024-03-08T09:07:45;95487.38;;;2.58;100.00
7662;BME280;30314;48.184;11.510;2024-03-08T09:10:12;95495.69;;;2.77;100.00
7662;BME280;30314;48.184;11.510;2024-03-08T09:12:47;95469.28;;;2.73;100.00
7662;BME280;30314;48.184;11.510;2024-03-08T09:15:17;95444.44;;;2.65;100.00
7662;BME280;30314;48.184;11.510;2024-03-08T09:17:44;95481.56;;;3.00;100.00
7662;BME280;30314;48.184;11.510;2024-03-08T09:20:13;95489.22;;;3.12;100.00
7662;BME280;30314;48.184;11.510;2024-03-08T09:22:45;95474.41;;;3.18;100.00
7662;BME280;30314;48.184;11.510;2024-03-08T09:25:12;95459.16;;;3.04;100.00
7662;BME280;30314;48.184;11.510;2024-03-08T09:27:41;95423.00;;;2.86;100.00
7662;BME280;30314;48.184;11.510;2024-03-08T09:30:24;95475.13;;;3.41;100.00
7662;BME280;30314;48.184;11.510;2024-03-08T09:32:53;95487.31;;;3.62;100.00
7662;BME280;30314;48.184;11.510;2024-03-08T09:35:30;95437.47;;;3.31;100.00
7662;BME280;30314;48.184;11.510;2024-03-08T09:37:57;95384.03;;;3.06;100.00
7662;BME280;30314;48.184;11.510;2024-03-08T09:40:23;95413.34;;;3.19;100.00
7662;BME280;30314;48.184;11.510;2024-03-08T09:42:52;95322.56;;;2.56;100.00
7662;BME280;30314;48.184;11.510;2024-03-08T09:45:21;95460.91;;;3.59;100.00
7662;BME280;30314;48.184;11.510;2024-03-08T09:47:50;95414.06;;;3.42;100.00
7662;BME280;30314;48.184;11.510;2024-03-08T09:50:20;95439.19;;;3.53;100.00
7662;BME280;30314;48.184;11.510;2024-03-08T09:52:49;95428.84;;;3.69;100.00
7662;BME280;30314;48.184;11.510;2024-03-08T09:55:17;95434.59;;;3.65;100.00
7662;BME280;30314;48.184;11.510;2024-03-08T09:57:51;95452.75;;;3.93;100.00
7662;BME280;30314;48.184;11.510;2024-03-08T10:00:36;95433.03;;;3.70;100.00
7662;BME280;30314;48.184;11.510;2024-03-08T10:03:03;95440.72;;;3.92;100.00
7662;BME280;30314;48.184;11.510;2024-03-08T10:05:33;95460.19;;;4.12;100.00
7662;BME280;30314;48.184;11.510;2024-03-08T10:08:27;95459.91;;;4.13;100.00
7662;BME280;30314;48.184;11.510;2024-03-08T10:10:56;95449.00;;;4.21;100.00
7662;BME280;30314;48.184;11.510;2024-03-08T10:13:26;95461.03;;;4.28;100.00
7662;BME280;30314;48.184;11.510;2024-03-08T10:15:55;95417.63;;;4.16;100.00
7662;BME280;30314;48.184;11.510;2024-03-08T10:18:22;95415.53;;;4.23;100.00
7662;BME280;30314;48.184;11.510;2024-03-08T10:21:08;95444.94;;;4.57;100.00
7662;BME280;30314;48.184;11.510;2024-03-08T10:23:37;95440.00;;;4.65;100.00
7662;BME280;30314;48.184;11.510;2024-03-08T10:26:17;95444.47;;;4.75;100.00
7662;BME280;30314;48.184;11.510;2024-03-08T10:28:51;95414.16;;;4.90;100.00
7662;BME280;30314;48.184;11.510;2024-03-08T10:31:50;95434.31;;;5.26;100.00
7662;BME280;30314;48.184;11.510;2024-03-08T10:34:17;95420.69;;;5.13;100.00
7662;BME280;30314;48.184;11.510;2024-03-08T10:36:45;95417.56;;;5.27;100.00
7662;BME280;30314;48.184;11.510;2024-03-08T10:39:23;95390.09;;;5.24;100.00
7662;BME280;30314;48.184;11.510;2024-03-08T10:42:03;95397.41;;;5.43;100.00
7662;BME280;30314;48.184;11.510;2024-03-08T10:44:32;95428.78;;;5.74;100.00
7662;BME280;30314;48.184;11.510;2024-03-08T10:47:17;95421.16;;;5.93;100.00
7662;BME280;30314;48.184;11.510;2024-03-08T10:50:09;95414.28;;;6.13;100.00
7662;BME280;30314;48.184;11.510;2024-03-08T10:52:37;95390.75;;;5.97;99.09
7662;BME280;30314;48.184;11.510;2024-03-08T10:55:05;95404.53;;;6.29;100.00
7662;BME280;30314;48.184;11.510;2024-03-08T10:57:39;95398.16;;;6.40;98.99
7662;BME280;30314;48.184;11.510;2024-03-08T11:00:08;95384.03;;;6.41;100.00
7662;BME280;30314;48.184;11.510;2024-03-08T11:02:38;95410.59;;;6.80;93.76
7662;BME280;30314;48.184;11.510;2024-03-08T11:05:10;95403.41;;;7.01;93.29
7662;BME280;30314;48.184;11.510;2024-03-08T11:07:43;95367.34;;;6.72;87.18
7662;BME280;30314;48.184;11.510;2024-03-08T11:10:46;95400.16;;;7.14;99.03
7662;BME280;30314;48.184;11.510;2024-03-08T11:13:39;95359.91;;;7.19;96.45
7662;BME280;30314;48.184;11.510;2024-03-08T11:16:09;95357.25;;;7.54;88.48
7662;BME280;30314;48.184;11.510;2024-03-08T11:18:37;95386.22;;;7.73;87.26
7662;BME280;30314;48.184;11.510;2024-03-08T11:21:06;95358.66;;;7.41;86.53
7662;BME280;30314;48.184;11.510;2024-03-08T11:23:39;95352.75;;;7.25;90.61
7662;BME280;30314;48.184;11.510;2024-03-08T11:26:23;95373.78;;;7.54;86.88
7662;BME280;30314;48.184;11.510;2024-03-08T11:28:50;95337.06;;;7.49;83.40
7662;BME280;30314;48.184;11.510;2024-03-08T11:31:24;95371.41;;;7.82;83.06
7662;BME280;30314;48.184;11.510;2024-03-08T11:33:52;95329.72;;;7.46;83.47
7662;BME280;30314;48.184;11.510;2024-03-08T11:36:23;95360.78;;;7.68;81.07
7662;BME280;30314;48.184;11.510;2024-03-08T11:38:52;95355.13;;;7.56;81.92
7662;BME280;30314;48.184;11.510;2024-03-08T11:41:23;95358.59;;;7.51;82.92
7662;BME280;30314;48.184;11.510;2024-03-08T11:44:05;95310.75;;;7.25;85.42
7662;BME280;30314;48.184;11.510;2024-03-08T11:46:38;95318.81;;;7.33;86.33
7662;BME280;30314;48.184;11.510;2024-03-08T11:49:10;95314.66;;;7.27;88.43
7662;BME280;30314;48.184;11.510;2024-03-08T11:51:38;95358.03;;;7.54;84.93
7662;BME280;30314;48.184;11.510;2024-03-08T11:54:06;95333.06;;;7.27;82.46
7662;BME280;30314;48.184;11.510;2024-03-08T11:56:36;95334.13;;;7.26;85.85
7662;BME280;30314;48.184;11.510;2024-03-08T11:59:04;95209.25;;;6.51;85.98
7662;BME280;30314;48.184;11.510;2024-03-08T12:01:31;95337.22;;;7.33;84.14
7662;BME280;30314;48.184;11.510;2024-03-08T12:04:11;95368.75;;;7.28;85.06
7662;BME280;30314;48.184;11.510;2024-03-08T12:06:46;95204.91;;;6.36;88.86
7662;BME280;30314;48.184;11.510;2024-03-08T12:09:15;95286.50;;;7.03;88.48
7662;BME280;30314;48.184;11.510;2024-03-08T12:11:42;95235.28;;;6.82;84.80
7662;BME280;30314;48.184;11.510;2024-03-08T12:14:12;95234.72;;;6.85;85.16
7662;BME280;30314;48.184;11.510;2024-03-08T12:16:42;95256.72;;;6.89;87.64
7662;BME280;30314;48.184;11.510;2024-03-08T12:19:11;95330.03;;;7.39;82.17
7662;BME280;30314;48.184;11.510;2024-03-08T12:21:42;95317.69;;;7.40;83.63
7662;BME280;30314;48.184;11.510;2024-03-08T12:24:16;95246.22;;;6.89;83.38
7662;BME280;30314;48.184;11.510;2024-03-08T12:26:52;95223.53;;;6.74;83.16
7662;BME280;30314;48.184;11.510;2024-03-08T12:29:21;95238.84;;;6.91;84.21
7662;BME280;30314;48.184;11.510;2024-03-08T12:31:52;95286.28;;;7.29;84.02
7662;BME280;30314;48.184;11.510;2024-03-08T12:34:51;95226.78;;;6.90;80.89
7662;BME280;30314;48.184;11.510;2024-03-08T12:37:20;95249.00;;;7.03;81.80
7662;BME280;30314;48.184;11.510;2024-03-08T12:39:47;95232.09;;;6.85;82.00
7662;BME280;30314;48.184;11.510;2024-03-08T12:42:18;95267.44;;;7.22;83.19
7662;BME280;30314;48.184;11.510;2024-03-08T12:44:50;95279.91;;;7.36;83.55
7662;BME280;30314;48.184;11.510;2024-03-08T12:47:19;95263.25;;;7.21;82.37
7662;BME280;30314;48.184;11.510;2024-03-08T12:49:47;95269.09;;;7.42;84.66
7662;BME280;30314;48.184;11.510;2024-03-08T12:52:17;95238.44;;;7.32;85.14
7662;BME280;30314;48.184;11.510;2024-03-08T12:54:45;95257.44;;;7.49;82.28
7662;BME280;30314;48.184;11.510;2024-03-08T12:57:13;95238.50;;;7.27;79.56
7662;BME280;30314;48.184;11.510;2024-03-08T12:59:58;95252.25;;;7.43;82.84
7662;BME280;30314;48.184;11.510;2024-03-08T13:02:33;95214.34;;;7.25;82.42
7662;BME280;30314;48.184;11.510;2024-03-08T13:05:00;95256.09;;;7.51;83.03
7662;BME280;30314;48.184;11.510;2024-03-08T13:07:31;95234.28;;;7.51;77.21
7662;BME280;30314;48.184;11.510;2024-03-08T13:09:58;95221.56;;;7.39;80.65
7662;BME280;30314;48.184;11.510;2024-03-08T13:12:35;95204.56;;;7.31;78.67
7662;BME280;30314;48.184;11.510;2024-03-08T13:15:29;95103.25;;;6.81;73.63
7662;BME280;30314;48.184;11.510;2024-03-08T13:17:56;95194.59;;;7.52;76.15
7662;BME280;30314;48.184;11.510;2024-03-08T13:20:26;95165.03;;;7.22;74.96
7662;BME280;30314;48.184;11.510;2024-03-08T13:23:05;95157.75;;;7.14;76.02